sensor_id;sensor_type;location;lat;lon;timestamp;pressure;altitude;pressure_sealevel;temperature;humidity
64211;BME280;50528;48.514;14.394;2022-11-09T00:00:00;93789.42;;;1.98;73.00
64211;BME280;50528;48.514;14.394;2022-11-09T00:01:12;93789.03;;;1.97;73.49
64211;BME280;50528;48.514;14.394;2022-11-09T00:02:16;93788.71;;;1.98;73.28
64211;BME280;50528;48.514;14.394;2022-11-09T00:03:20;93784.21;;;1.98;73.52
64211;BME280;50528;48.514;14.394;2022-11-09T00:04:24;93784.92;;;1.99;73.70
64211;BME280;50528;48.514;14.394;2022-11-09T00:05:28;93784.48;;;2.00;73.50
64211;BME280;50528;48.514;14.394;2022-11-09T00:06:32;93783.17;;;1.99;73.25
64211;BME280;50528;48.514;14.394;2022-11-09T00:07:36;93783.94;;;1.99;73.03
64211;BME280;50528;48.514;14.394;2022-11-09T00:08:40;93786.27;;;1.98;72.95
64211;BME280;50528;48.514;14.394;2022-11-09T00:09:44;93781.17;;;1.97;73.23
64211;BME280;50528;48.514;14.394;2022-11-09T00:10:48;93777.91;;;1.97;73.67
64211;BME280;50528;48.514;14.394;2022-11-09T00:11:52;93779.58;;;1.98;73.70
64211;BME280;50528;48.514;14.394;2022-11-09T00:12:58;93774.04;;;1.97;74.14
64211;BME280;50528;48.514;14.394;2022-11-09T00:14:04;93769.96;;;1.97;73.49
64211;BME280;50528;48.514;14.394;2022-11-09T00:15:07;93771.36;;;1.97;73.94
64211;BME280;50528;48.514;14.394;2022-11-09T00:16:12;93771.00;;;1.97;73.58
64211;BME280;50528;48.514;14.394;2022-11-09T00:17:17;93771.27;;;1.97;73.34
64211;BME280;50528;48.514;14.394;2022-11-09T00:18:22;93773.48;;;1.97;73.31
64211;BME280;50528;48.514;14.394;2022-11-09T00:19:27;93773.35;;;1.97;73.82
64211;BME280;50528;48.514;14.394;2022-11-09T00:20:32;93772.20;;;1.96;73.55
64211;BME280;50528;48.514;14.394;2022-11-09T00:21:38;93773.43;;;1.97;73.37
64211;BME280;50528;48.514;14.394;2022-11-09T00:22:46;93771.01;;;1.97;73.22
64211;BME280;50528;48.514;14.394;2022-11-09T00:23:51;93770.73;;;1.97;73.34
64211;BME280;50528;48.514;14.394;2022-11-09T00:24:55;93770.76;;;1.96;73.84
64211;BME280;50528;48.514;14.394;2022-11-09T00:26:02;93771.51;;;1.96;73.30
64211;BME280;50528;48.514;14.394;2022-11-09T00:27:06;93768.36;;;1.95;73.09
64211;BME280;50528;48.514;14.394;2022-11-09T00:28:11;93765.45;;;1.95;73.09
64211;BME280;50528;48.514;14.394;2022-11-09T00:29:18;93773.27;;;1.95;73.16
64211;BME280;50528;48.514;14.394;2022-11-09T00:30:24;93770.11;;;1.95;73.63
64211;BME280;50528;48.514;14.394;2022-11-09T00:31:30;93767.57;;;1.95;73.36
64211;BME280;50528;48.514;14.394;2022-11-09T00:32:34;93766.61;;;1.95;73.23
64211;BME280;50528;48.514;14.394;2022-11-09T00:33:37;93767.68;;;1.95;73.28
64211;BME280;50528;48.514;14.394;2022-11-09T00:34:43;93768.00;;;1.95;73.53
64211;BME280;50528;48.514;14.394;2022-11-09T00:35:50;93765.52;;;1.92;73.27
64211;BME280;50528;48.514;14.394;2022-11-09T00:36:54;93772.46;;;1.95;73.43
64211;BME280;50528;48.514;14.394;2022-11-09T00:38:01;93766.96;;;1.95;73.31
64211;BME280;50528;48.514;14.394;2022-11-09T00:39:04;93770.83;;;1.95;73.47
64211;BME280;50528;48.514;14.394;2022-11-09T00:40:10;93772.71;;;1.95;73.74
64211;BME280;50528;48.514;14.394;2022-11-09T00:41:14;93772.51;;;1.92;74.06
64211;BME280;50528;48.514;14.394;2022-11-09T00:42:18;93773.08;;;1.93;73.57
64211;BME280;50528;48.514;14.394;2022-11-09T00:43:27;93778.10;;;1.93;73.58
64211;BME280;50528;48.514;14.394;2022-11-09T00:44:32;93777.46;;;1.93;74.04
64211;BME280;50528;48.514;14.394;2022-11-09T00:45:36;93781.04;;;1.92;73.57
64211;BME280;50528;48.514;14.394;2022-11-09T00:46:43;93771.34;;;1.88;73.36
64211;BME280;50528;48.514;14.394;2022-11-09T00:47:47;93779.13;;;1.88;73.22
64211;BME280;50528;48.514;14.394;2022-11-09T00:48:53;93778.44;;;1.87;73.43
64211;BME280;50528;48.514;14.394;2022-11-09T00:50:02;93779.87;;;1.86;73.43
64211;BME280;50528;48.514;14.394;2022-11-09T00:51:08;93777.27;;;1.85;73.38
64211;BME280;50528;48.514;14.394;2022-11-09T00:52:12;93778.23;;;1.86;73.41
64211;BME280;50528;48.514;14.394;2022-11-09T00:53:16;93779.54;;;1.85;73.38
64211;BME280;50528;48.514;14.394;2022-11-09T00:54:22;93779.96;;;1.84;73.31
64211;BME280;50528;48.514;14.394;2022-11-09T00:55:25;93777.34;;;1.84;73.67
64211;BME280;50528;48.514;14.394;2022-11-09T00:56:30;93778.25;;;1.84;73.98
64211;BME280;50528;48.514;14.394;2022-11-09T00:57:34;93770.72;;;1.82;73.48
64211;BME280;50528;48.514;14.394;2022-11-09T00:58:40;93775.23;;;1.83;73.82
64211;BME280;50528;48.514;14.394;2022-11-09T00:59:44;93775.52;;;1.82;73.94
64211;BME280;50528;48.514;14.394;2022-11-09T01:00:48;93771.77;;;1.82;74.09
64211;BME280;50528;48.514;14.394;2022-11-09T01:01:52;93771.37;;;1.81;74.14
64211;BME280;50528;48.514;14.394;2022-11-09T01:02:56;93773.27;;;1.83;73.52
64211;BME280;50528;48.514;14.394;2022-11-09T01:04:01;93771.68;;;1.84;73.52
64211;BME280;50528;48.514;14.394;2022-11-09T01:05:05;93772.59;;;1.84;74.05
64211;BME280;50528;48.514;14.394;2022-11-09T01:06:14;93773.14;;;1.83;73.92
64211;BME280;50528;48.514;14.394;2022-11-09T01:07:20;93773.98;;;1.84;74.13
64211;BME280;50528;48.514;14.394;2022-11-09T01:08:23;93774.52;;;1.84;74.08
64211;BME280;50528;48.514;14.394;2022-11-09T01:09:29;93775.14;;;1.84;74.31
64211;BME280;50528;48.514;14.394;2022-11-09T01:10:33;93775.27;;;1.84;74.38
64211;BME280;50528;48.514;14.394;2022-11-09T01:11:37;93775.87;;;1.85;74.10
64211;BME280;50528;48.514;14.394;2022-11-09T01:12:41;93773.88;;;1.86;73.66
64211;BME280;50528;48.514;14.394;2022-11-09T01:13:46;93775.84;;;1.85;74.30
64211;BME280;50528;48.514;14.394;2022-11-09T01:14:51;93774.64;;;1.85;74.38
64211;BME280;50528;48.514;14.394;2022-11-09T01:16:04;93775.39;;;1.85;74.10
64211;BME280;50528;48.514;14.394;2022-11-09T01:17:11;93773.00;;;1.85;73.65
64211;BME280;50528;48.514;14.394;2022-11-09T01:18:16;93772.80;;;1.85;73.63
64211;BME280;50528;48.514;14.394;2022-11-09T01:19:22;93774.83;;;1.84;73.97
64211;BME280;50528;48.514;14.394;2022-11-09T01:20:28;93774.66;;;1.84;73.83
64211;BME280;50528;48.514;14.394;2022-11-09T01:21:36;93775.92;;;1.83;73.58
64211;BME280;50528;48.514;14.394;2022-11-09T01:22:41;93776.77;;;1.82;73.65
64211;BME280;50528;48.514;14.394;2022-11-09T01:23:44;93780.81;;;1.82;73.87
64211;BME280;50528;48.514;14.394;2022-11-09T01:24:48;93781.29;;;1.81;73.66
64211;BME280;50528;48.514;14.394;2022-11-09T01:25:59;93783.90;;;1.79;73.72
64211;BME280;50528;48.514;14.394;2022-11-09T01:27:05;93781.84;;;1.77;73.80
64211;BME280;50528;48.514;14.394;2022-11-09T01:28:09;93780.39;;;1.74;73.71
64211;BME280;50528;48.514;14.394;2022-11-09T01:29:13;93775.27;;;1.72;73.58
64211;BME280;50528;48.514;14.394;2022-11-09T01:30:17;93777.50;;;1.71;73.85
64211;BME280;50528;48.514;14.394;2022-11-09T01:31:21;93779.23;;;1.70;74.22
64211;BME280;50528;48.514;14.394;2022-11-09T01:32:25;93776.59;;;1.69;74.40
64211;BME280;50528;48.514;14.394;2022-11-09T01:33:29;93776.29;;;1.67;74.03
64211;BME280;50528;48.514;14.394;2022-11-09T01:34:34;93778.91;;;1.65;73.69
64211;BME280;50528;48.514;14.394;2022-11-09T01:35:40;93779.71;;;1.63;74.12
64211;BME280;50528;48.514;14.394;2022-11-09T01:36:44;93777.26;;;1.61;73.71
64211;BME280;50528;48.514;14.394;2022-11-09T01:37:51;93780.92;;;1.58;73.90
64211;BME280;50528;48.514;14.394;2022-11-09T01:38:55;93784.31;;;1.57;73.96
64211;BME280;50528;48.514;14.394;2022-11-09T01:40:00;93782.70;;;1.56;74.05
64211;BME280;50528;48.514;14.394;2022-11-09T01:41:14;93780.11;;;1.55;73.95
64211;BME280;50528;48.514;14.394;2022-11-09T01:42:27;93780.58;;;1.58;73.55
64211;BME280;50528;48.514;14.394;2022-11-09T01:43:32;93778.26;;;1.58;73.81
64211;BME280;50528;48.514;14.394;2022-11-09T01:44:37;93776.42;;;1.59;74.34
64211;BME280;50528;48.514;14.394;2022-11-09T01:45:47;93778.14;;;1.59;74.41
64211;BME280;50528;48.514;14.394;2022-11-09T01:46:59;93776.42;;;1.59;74.85
64211;BME280;50528;48.514;14.394;2022-11-09T01:48:12;93779.65;;;1.57;74.99
64211;BME280;50528;48.514;14.394;2022-11-09T01:50:36;93781.85;;;1.54;75.14
64211;BME280;50528;48.514;14.394;2022-11-09T01:51:43;93777.31;;;1.55;74.84
64211;BME280;50528;48.514;14.394;2022-11-09T01:52:50;93774.88;;;1.55;74.92
64211;BME280;50528;48.514;14.394;2022-11-09T01:54:00;93772.47;;;1.56;74.82
64211;BME280;50528;48.514;14.394;2022-11-09T01:55:08;93773.58;;;1.56;74.55
64211;BME280;50528;48.514;14.394;2022-11-09T01:56:18;93775.75;;;1.58;75.24
64211;BME280;50528;48.514;14.394;2022-11-09T01:57:48;93769.84;;;1.55;75.01
64211;BME280;50528;48.514;14.394;2022-11-09T01:59:00;93774.48;;;1.59;74.86
64211;BME280;50528;48.514;14.394;2022-11-09T02:00:06;93773.54;;;1.60;75.58
64211;BME280;50528;48.514;14.394;2022-11-09T02:01:17;93771.69;;;1.61;75.92
64211;BME280;50528;48.514;14.394;2022-11-09T02:02:21;93765.55;;;1.62;75.38
64211;BME280;50528;48.514;14.394;2022-11-09T02:03:27;93757.02;;;1.58;75.02
64211;BME280;50528;48.514;14.394;2022-11-09T02:04:35;93760.09;;;1.63;75.01
64211;BME280;50528;48.514;14.394;2022-11-09T02:05:44;93758.44;;;1.63;74.62
64211;BME280;50528;48.514;14.394;2022-11-09T02:06:49;93757.92;;;1.63;74.79
64211;BME280;50528;48.514;14.394;2022-11-09T02:07:54;93756.00;;;1.65;74.69
64211;BME280;50528;48.514;14.394;2022-11-09T02:09:01;93754.14;;;1.62;75.08
64211;BME280;50528;48.514;14.394;2022-11-09T02:11:06;93755.29;;;1.64;74.98
64211;BME280;50528;48.514;14.394;2022-11-09T02:11:35;93755.70;;;1.61;75.48
64211;BME280;50528;48.514;14.394;2022-11-09T02:12:41;93751.70;;;1.55;75.50
64211;BME280;50528;48.514;14.394;2022-11-09T02:13:48;93757.98;;;1.52;75.47
64211;BME280;50528;48.514;14.394;2022-11-09T02:14:55;93755.73;;;1.48;75.69
64211;BME280;50528;48.514;14.394;2022-11-09T02:16:01;93756.33;;;1.45;75.46
64211;BME280;50528;48.514;14.394;2022-11-09T02:17:06;93757.98;;;1.43;76.38
64211;BME280;50528;48.514;14.394;2022-11-09T02:18:11;93758.89;;;1.42;75.98
64211;BME280;50528;48.514;14.394;2022-11-09T02:19:15;93761.20;;;1.42;75.52
64211;BME280;50528;48.514;14.394;2022-11-09T02:20:19;93756.20;;;1.41;75.85
64211;BME280;50528;48.514;14.394;2022-11-09T02:21:26;93755.42;;;1.40;75.63
64211;BME280;50528;48.514;14.394;2022-11-09T02:22:31;93753.31;;;1.39;75.85
64211;BME280;50528;48.514;14.394;2022-11-09T02:23:36;93752.47;;;1.39;75.70
64211;BME280;50528;48.514;14.394;2022-11-09T02:24:40;93751.62;;;1.37;75.71
64211;BME280;50528;48.514;14.394;2022-11-09T02:25:48;93748.79;;;1.36;75.66
64211;BME280;50528;48.514;14.394;2022-11-09T02:26:55;93751.34;;;1.34;75.57
64211;BME280;50528;48.514;14.394;2022-11-09T02:27:59;93741.34;;;1.33;75.50
64211;BME280;50528;48.514;14.394;2022-11-09T02:29:08;93742.91;;;1.31;75.57
64211;BME280;50528;48.514;14.394;2022-11-09T02:30:13;93743.48;;;1.29;75.42
64211;BME280;50528;48.514;14.394;2022-11-09T02:31:17;93741.56;;;1.28;75.45
64211;BME280;50528;48.514;14.394;2022-11-09T02:32:23;93743.89;;;1.26;75.40
64211;BME280;50528;48.514;14.394;2022-11-09T02:33:39;93742.76;;;1.23;75.53
64211;BME280;50528;48.514;14.394;2022-11-09T02:34:45;93745.20;;;1.22;75.87
64211;BME280;50528;48.514;14.394;2022-11-09T02:35:49;93744.44;;;1.21;76.21
64211;BME280;50528;48.514;14.394;2022-11-09T02:36:53;93745.72;;;1.22;76.12
64211;BME280;50528;48.514;14.394;2022-11-09T02:37:57;93738.70;;;1.22;76.00
64211;BME280;50528;48.514;14.394;2022-11-09T02:39:02;93737.79;;;1.23;75.56
64211;BME280;50528;48.514;14.394;2022-11-09T02:40:06;93733.24;;;1.24;75.30
64211;BME280;50528;48.514;14.394;2022-11-09T02:41:12;93731.38;;;1.23;75.48
64211;BME280;50528;48.514;14.394;2022-11-09T02:42:16;93731.42;;;1.23;75.69
64211;BME280;50528;48.514;14.394;2022-11-09T02:43:25;93732.34;;;1.23;75.62
64211;BME280;50528;48.514;14.394;2022-11-09T02:44:29;93729.27;;;1.24;75.38
64211;BME280;50528;48.514;14.394;2022-11-09T02:45:32;93731.17;;;1.24;75.46
64211;BME280;50528;48.514;14.394;2022-11-09T02:46:36;93729.02;;;1.22;75.31
64211;BME280;50528;48.514;14.394;2022-11-09T02:47:40;93735.44;;;1.24;75.69
64211;BME280;50528;48.514;14.394;2022-11-09T02:48:44;93719.55;;;1.16;75.58
64211;BME280;50528;48.514;14.394;2022-11-09T02:49:47;93734.33;;;1.25;75.49
64211;BME280;50528;48.514;14.394;2022-11-09T02:50:52;93732.45;;;1.25;75.37
64211;BME280;50528;48.514;14.394;2022-11-09T02:51:56;93730.23;;;1.26;75.27
64211;BME280;50528;48.514;14.394;2022-11-09T02:52:59;93736.08;;;1.26;75.23
64211;BME280;50528;48.514;14.394;2022-11-09T02:54:03;93732.77;;;1.25;75.46
64211;BME280;50528;48.514;14.394;2022-11-09T02:55:07;93734.50;;;1.28;75.50
64211;BME280;50528;48.514;14.394;2022-11-09T02:56:11;93733.06;;;1.26;75.41
64211;BME280;50528;48.514;14.394;2022-11-09T02:57:18;93739.25;;;1.29;75.38
64211;BME280;50528;48.514;14.394;2022-11-09T02:58:24;93740.45;;;1.30;75.53
64211;BME280;50528;48.514;14.394;2022-11-09T02:59:30;93741.71;;;1.31;75.43
64211;BME280;50528;48.514;14.394;2022-11-09T03:00:41;93741.52;;;1.33;75.11
64211;BME280;50528;48.514;14.394;2022-11-09T03:01:46;93740.53;;;1.32;75.21
64211;BME280;50528;48.514;14.394;2022-11-09T03:02:49;93743.39;;;1.31;75.26
64211;BME280;50528;48.514;14.394;2022-11-09T03:03:54;93743.88;;;1.31;75.43
64211;BME280;50528;48.514;14.394;2022-11-09T03:04:58;93743.35;;;1.31;75.33
64211;BME280;50528;48.514;14.394;2022-11-09T03:06:02;93742.63;;;1.31;75.42
64211;BME280;50528;48.514;14.394;2022-11-09T03:07:08;93746.14;;;1.30;75.12
64211;BME280;50528;48.514;14.394;2022-11-09T03:08:13;93743.12;;;1.30;75.20
64211;BME280;50528;48.514;14.394;2022-11-09T03:09:18;93741.01;;;1.29;75.11
64211;BME280;50528;48.514;14.394;2022-11-09T03:10:22;93739.88;;;1.28;75.11
64211;BME280;50528;48.514;14.394;2022-11-09T03:11:26;93741.42;;;1.27;75.15
64211;BME280;50528;48.514;14.394;2022-11-09T03:12:37;93737.59;;;1.25;75.24
64211;BME280;50528;48.514;14.394;2022-11-09T03:13:44;93738.42;;;1.22;75.17
64211;BME280;50528;48.514;14.394;2022-11-09T03:14:49;93737.79;;;1.22;75.30
64211;BME280;50528;48.514;14.394;2022-11-09T03:16:04;93738.25;;;1.21;75.21
64211;BME280;50528;48.514;14.394;2022-11-09T03:17:11;93739.73;;;1.21;75.05
64211;BME280;50528;48.514;14.394;2022-11-09T03:18:16;93740.56;;;1.20;74.79
64211;BME280;50528;48.514;14.394;2022-11-09T03:19:20;93739.67;;;1.19;75.15
64211;BME280;50528;48.514;14.394;2022-11-09T03:20:25;93736.04;;;1.18;74.96
64211;BME280;50528;48.514;14.394;2022-11-09T03:21:30;93736.00;;;1.17;74.95
64211;BME280;50528;48.514;14.394;2022-11-09T03:22:34;93730.63;;;1.14;74.95
64211;BME280;50528;48.514;14.394;2022-11-09T03:23:38;93734.58;;;1.16;75.01
64211;BME280;50528;48.514;14.394;2022-11-09T03:24:41;93733.86;;;1.16;75.09
64211;BME280;50528;48.514;14.394;2022-11-09T03:25:45;93733.13;;;1.14;75.27
64211;BME280;50528;48.514;14.394;2022-11-09T03:26:49;93736.09;;;1.16;75.05
64211;BME280;50528;48.514;14.394;2022-11-09T03:28:00;93734.17;;;1.16;75.30
64211;BME280;50528;48.514;14.394;2022-11-09T03:29:06;93734.21;;;1.16;75.39
64211;BME280;50528;48.514;14.394;2022-11-09T03:30:11;93735.41;;;1.18;75.42
64211;BME280;50528;48.514;14.394;2022-11-09T03:31:15;93734.84;;;1.18;75.57
64211;BME280;50528;48.514;14.394;2022-11-09T03:32:19;93734.05;;;1.19;75.51
64211;BME280;50528;48.514;14.394;2022-11-09T03:33:23;93734.14;;;1.19;75.60
64211;BME280;50528;48.514;14.394;2022-11-09T03:34:40;93730.72;;;1.19;75.52
64211;BME280;50528;48.514;14.394;2022-11-09T03:35:43;93734.86;;;1.19;75.71
64211;BME280;50528;48.514;14.394;2022-11-09T03:36:51;93731.75;;;1.19;75.57
64211;BME280;50528;48.514;14.394;2022-11-09T03:37:59;93733.27;;;1.19;75.18
64211;BME280;50528;48.514;14.394;2022-11-09T03:39:03;93731.91;;;1.19;75.26
64211;BME280;50528;48.514;14.394;2022-11-09T03:40:07;93731.63;;;1.19;75.15
64211;BME280;50528;48.514;14.394;2022-11-09T03:41:17;93731.88;;;1.17;75.12
64211;BME280;50528;48.514;14.394;2022-11-09T03:42:20;93730.35;;;1.15;75.03
64211;BME280;50528;48.514;14.394;2022-11-09T03:43:24;93731.52;;;1.13;74.93
64211;BME280;50528;48.514;14.394;2022-11-09T03:44:32;93736.77;;;1.14;75.03
64211;BME280;50528;48.514;14.394;2022-11-09T03:45:35;93736.85;;;1.13;75.15
64211;BME280;50528;48.514;14.394;2022-11-09T03:46:42;93737.92;;;1.11;75.09
64211;BME280;50528;48.514;14.394;2022-11-09T03:48:01;93738.21;;;1.11;75.26
64211;BME280;50528;48.514;14.394;2022-11-09T03:49:05;93741.27;;;1.10;75.47
64211;BME280;50528;48.514;14.394;2022-11-09T03:50:10;93738.30;;;1.07;75.64
64211;BME280;50528;48.514;14.394;2022-11-09T03:51:13;93735.55;;;1.04;75.13
64211;BME280;50528;48.514;14.394;2022-11-09T03:52:17;93737.91;;;1.02;75.29
64211;BME280;50528;48.514;14.394;2022-11-09T03:53:21;93734.89;;;1.00;75.29
64211;BME280;50528;48.514;14.394;2022-11-09T03:54:25;93736.34;;;0.98;75.16
64211;BME280;50528;48.514;14.394;2022-11-09T03:55:28;93732.07;;;0.96;75.12
64211;BME280;50528;48.514;14.394;2022-11-09T03:56:33;93736.64;;;0.95;74.97
64211;BME280;50528;48.514;14.394;2022-11-09T03:57:37;93735.72;;;0.92;75.01
64211;BME280;50528;48.514;14.394;2022-11-09T03:58:42;93742.04;;;0.91;74.96
64211;BME280;50528;48.514;14.394;2022-11-09T03:59:46;93739.47;;;0.90;75.61
64211;BME280;50528;48.514;14.394;2022-11-09T04:00:51;93738.48;;;0.88;75.23
64211;BME280;50528;48.514;14.394;2022-11-09T04:01:54;93738.66;;;0.85;74.87
64211;BME280;50528;48.514;14.394;2022-11-09T04:03:00;93737.39;;;0.80;74.99
64211;BME280;50528;48.514;14.394;2022-11-09T04:04:04;93737.14;;;0.78;75.20
64211;BME280;50528;48.514;14.394;2022-11-09T04:05:07;93739.23;;;0.78;75.00
64211;BME280;50528;48.514;14.394;2022-11-09T04:06:11;93739.30;;;0.76;75.13
64211;BME280;50528;48.514;14.394;2022-11-09T04:07:14;93737.31;;;0.74;74.96
64211;BME280;50528;48.514;14.394;2022-11-09T04:08:19;93741.39;;;0.76;74.88
64211;BME280;50528;48.514;14.394;2022-11-09T04:09:23;93739.84;;;0.76;74.71
64211;BME280;50528;48.514;14.394;2022-11-09T04:10:26;93736.92;;;0.74;75.27
64211;BME280;50528;48.514;14.394;2022-11-09T04:11:31;93735.98;;;0.76;75.12
64211;BME280;50528;48.514;14.394;2022-11-09T04:12:34;93730.50;;;0.74;75.59
64211;BME280;50528;48.514;14.394;2022-11-09T04:13:39;93733.81;;;0.75;75.58
64211;BME280;50528;48.514;14.394;2022-11-09T04:14:42;93736.84;;;0.80;75.26
64211;BME280;50528;48.514;14.394;2022-11-09T04:15:45;93730.89;;;0.81;75.51
64211;BME280;50528;48.514;14.394;2022-11-09T04:16:49;93731.07;;;0.82;75.55
64211;BME280;50528;48.514;14.394;2022-11-09T04:17:53;93731.46;;;0.83;75.56
64211;BME280;50528;48.514;14.394;2022-11-09T04:18:56;93728.90;;;0.85;75.61
64211;BME280;50528;48.514;14.394;2022-11-09T04:20:00;93727.77;;;0.86;75.39
64211;BME280;50528;48.514;14.394;2022-11-09T04:21:05;93725.66;;;0.87;75.43
64211;BME280;50528;48.514;14.394;2022-11-09T04:22:09;93724.70;;;0.89;75.45
64211;BME280;50528;48.514;14.394;2022-11-09T04:23:12;93725.27;;;0.91;75.54
64211;BME280;50528;48.514;14.394;2022-11-09T04:24:17;93721.20;;;0.94;75.98
64211;BME280;50528;48.514;14.394;2022-11-09T04:25:21;93706.09;;;0.90;76.63
64211;BME280;50528;48.514;14.394;2022-11-09T04:26:24;93718.64;;;0.99;76.94
64211;BME280;50528;48.514;14.394;2022-11-09T04:27:29;93718.27;;;1.03;77.32
64211;BME280;50528;48.514;14.394;2022-11-09T04:28:32;93719.66;;;1.11;77.78
64211;BME280;50528;48.514;14.394;2022-11-09T04:29:37;93716.41;;;1.18;78.39
64211;BME280;50528;48.514;14.394;2022-11-09T04:30:41;93707.90;;;1.25;78.92
64211;BME280;50528;48.514;14.394;2022-11-09T04:31:47;93711.09;;;1.29;78.80
64211;BME280;50528;48.514;14.394;2022-11-09T04:32:51;93708.27;;;1.33;79.30
64211;BME280;50528;48.514;14.394;2022-11-09T04:33:54;93703.44;;;1.41;79.63
64211;BME280;50528;48.514;14.394;2022-11-09T04:34:57;93707.53;;;1.50;79.84
64211;BME280;50528;48.514;14.394;2022-11-09T04:36:02;93695.08;;;1.49;79.88
64211;BME280;50528;48.514;14.394;2022-11-09T04:37:07;93707.58;;;1.55;79.61
64211;BME280;50528;48.514;14.394;2022-11-09T04:38:12;93706.80;;;1.59;80.02
64211;BME280;50528;48.514;14.394;2022-11-09T04:39:16;93707.92;;;1.61;79.96
64211;BME280;50528;48.514;14.394;2022-11-09T04:40:19;93710.12;;;1.62;79.93
64211;BME280;50528;48.514;14.394;2022-11-09T04:41:23;93709.98;;;1.63;80.02
64211;BME280;50528;48.514;14.394;2022-11-09T04:42:26;93709.02;;;1.62;80.17
64211;BME280;50528;48.514;14.394;2022-11-09T04:43:30;93713.81;;;1.60;79.36
64211;BME280;50528;48.514;14.394;2022-11-09T04:44:34;93710.46;;;1.58;79.93
64211;BME280;50528;48.514;14.394;2022-11-09T04:45:39;93714.27;;;1.55;79.59
64211;BME280;50528;48.514;14.394;2022-11-09T04:46:51;93712.37;;;1.52;79.42
64211;BME280;50528;48.514;14.394;2022-11-09T04:47:58;93709.81;;;1.51;79.21
64211;BME280;50528;48.514;14.394;2022-11-09T04:49:03;93709.00;;;1.48;78.78
64211;BME280;50528;48.514;14.394;2022-11-09T04:50:06;93707.08;;;1.47;78.59
64211;BME280;50528;48.514;14.394;2022-11-09T04:51:10;93712.32;;;1.46;79.24
64211;BME280;50528;48.514;14.394;2022-11-09T04:52:13;93709.42;;;1.45;78.68
64211;BME280;50528;48.514;14.394;2022-11-09T04:53:17;93713.98;;;1.43;78.82
64211;BME280;50528;48.514;14.394;2022-11-09T04:54:21;93713.61;;;1.40;78.88
64211;BME280;50528;48.514;14.394;2022-11-09T04:55:24;93711.77;;;1.38;78.35
64211;BME280;50528;48.514;14.394;2022-11-09T04:56:27;93705.28;;;1.34;78.44
64211;BME280;50528;48.514;14.394;2022-11-09T04:57:31;93714.89;;;1.35;78.69
64211;BME280;50528;48.514;14.394;2022-11-09T04:58:34;93710.21;;;1.33;78.44
64211;BME280;50528;48.514;14.394;2022-11-09T04:59:41;93713.73;;;1.35;78.52
64211;BME280;50528;48.514;14.394;2022-11-09T05:00:44;93719.70;;;1.36;78.58
64211;BME280;50528;48.514;14.394;2022-11-09T05:01:48;93717.24;;;1.35;78.83
64211;BME280;50528;48.514;14.394;2022-11-09T05:02:52;93721.65;;;1.33;78.81
64211;BME280;50528;48.514;14.394;2022-11-09T05:03:55;93722.52;;;1.30;79.42
64211;BME280;50528;48.514;14.394;2022-11-09T05:04:59;93722.27;;;1.25;79.37
64211;BME280;50528;48.514;14.394;2022-11-09T05:06:03;93721.48;;;1.20;79.43
64211;BME280;50528;48.514;14.394;2022-11-09T05:07:26;93724.08;;;1.17;79.90
64211;BME280;50528;48.514;14.394;2022-11-09T05:08:30;93727.36;;;1.16;79.97
64211;BME280;50528;48.514;14.394;2022-11-09T05:09:33;93730.73;;;1.14;79.81
64211;BME280;50528;48.514;14.394;2022-11-09T05:10:37;93732.75;;;1.13;80.00
64211;BME280;50528;48.514;14.394;2022-11-09T05:11:43;93734.13;;;1.12;79.39
64211;BME280;50528;48.514;14.394;2022-11-09T05:12:47;93730.61;;;1.11;79.29
64211;BME280;50528;48.514;14.394;2022-11-09T05:13:51;93725.77;;;1.07;78.96
64211;BME280;50528;48.514;14.394;2022-11-09T05:14:55;93732.65;;;1.08;78.82
64211;BME280;50528;48.514;14.394;2022-11-09T05:15:59;93736.09;;;1.04;78.60
64211;BME280;50528;48.514;14.394;2022-11-09T05:17:03;93732.88;;;0.97;78.63
64211;BME280;50528;48.514;14.394;2022-11-09T05:18:07;93741.34;;;0.95;78.86
64211;BME280;50528;48.514;14.394;2022-11-09T05:19:12;93736.34;;;0.91;78.79
64211;BME280;50528;48.514;14.394;2022-11-09T05:20:16;93739.23;;;0.89;78.82
64211;BME280;50528;48.514;14.394;2022-11-09T05:21:19;93735.89;;;0.82;78.93
64211;BME280;50528;48.514;14.394;2022-11-09T05:22:23;93736.34;;;0.77;78.64
64211;BME280;50528;48.514;14.394;2022-11-09T05:23:46;93731.83;;;0.71;78.90
64211;BME280;50528;48.514;14.394;2022-11-09T05:25:02;93732.79;;;0.63;79.10
64211;BME280;50528;48.514;14.394;2022-11-09T05:26:06;93737.24;;;0.59;78.93
64211;BME280;50528;48.514;14.394;2022-11-09T05:27:11;93740.52;;;0.55;79.22
64211;BME280;50528;48.514;14.394;2022-11-09T05:28:17;93737.70;;;0.50;79.19
64211;BME280;50528;48.514;14.394;2022-11-09T05:29:21;93734.08;;;0.43;79.19
64211;BME280;50528;48.514;14.394;2022-11-09T05:30:24;93741.50;;;0.41;79.39
64211;BME280;50528;48.514;14.394;2022-11-09T05:31:28;93741.52;;;0.38;79.58
64211;BME280;50528;48.514;14.394;2022-11-09T05:32:34;93740.35;;;0.38;79.27
64211;BME280;50528;48.514;14.394;2022-11-09T05:33:39;93741.09;;;0.36;79.35
64211;BME280;50528;48.514;14.394;2022-11-09T05:34:43;93736.11;;;0.33;79.93
64211;BME280;50528;48.514;14.394;2022-11-09T05:35:47;93736.80;;;0.32;79.77
64211;BME280;50528;48.514;14.394;2022-11-09T05:36:51;93737.75;;;0.30;79.75
64211;BME280;50528;48.514;14.394;2022-11-09T05:37:56;93734.69;;;0.28;80.02
64211;BME280;50528;48.514;14.394;2022-11-09T05:39:01;93738.66;;;0.25;79.88
64211;BME280;50528;48.514;14.394;2022-11-09T05:40:17;93733.73;;;0.19;79.71
64211;BME280;50528;48.514;14.394;2022-11-09T05:41:31;93738.55;;;0.18;79.63
64211;BME280;50528;48.514;14.394;2022-11-09T05:42:38;93739.73;;;0.14;79.55
64211;BME280;50528;48.514;14.394;2022-11-09T05:43:43;93738.89;;;0.09;79.38
64211;BME280;50528;48.514;14.394;2022-11-09T05:44:51;93740.88;;;0.07;79.52
64211;BME280;50528;48.514;14.394;2022-11-09T05:46:20;93744.34;;;0.06;79.40
64211;BME280;50528;48.514;14.394;2022-11-09T05:47:25;93749.88;;;0.06;79.53
64211;BME280;50528;48.514;14.394;2022-11-09T05:48:33;93752.81;;;0.06;79.34